EDT,Max TemperatureF,Mean TemperatureF,Min TemperatureF,Max Dew PointF,MeanDew PointF,Min DewpointF,Max Humidity, Mean Humidity, Min Humidity, Max Sea Level PressureIn, Mean Sea Level PressureIn, Min Sea Level PressureIn, Max VisibilityMiles, Mean VisibilityMiles, Min VisibilityMiles, Max Wind SpeedMPH, Mean Wind SpeedMPH, Max Gust SpeedMPH,PrecipitationIn, CloudCover, Events, WindDirDegrees
2012-9-1,70,56,42,53,47,42,100,70,40,30.12,30.03,29.84,10,10,10,16,6,22,0.00,0,,8
2012-9-2,67,53,38,56,49,38,100,82,63,30.17,30.13,30.10,10,10,10,10,2,14,0.02,5,,88
2012-9-3,73,63,53,55,52,48,93,69,44,30.22,30.16,30.10,10,10,10,7,2,10,0.00,4,,228
2012-9-4,77,67,57,60,57,55,93,74,54,30.10,30.04,29.95,10,7,0,17,7,22,0.00,5,Fog,204
2012-9-5,68,61,53,61,57,52,97,83,68,29.93,29.83,29.75,10,8,2,22,8,26,1.21,7,Rain,95
2012-9-6,70,61,52,59,55,51,100,82,63,29.88,29.85,29.83,10,10,9,15,5,18,0.00,7,,4
2012-9-7,75,65,55,62,57,52,100,82,64,29.91,29.87,29.84,10,9,2,8,3,15,0.01,5,Rain,174
2012-9-8,77,69,60,66,62,59,97,81,64,29.90,29.82,29.58,10,5,0,20,9,33,0.09,7,Fog-Rain,172
2012-9-9,70,61,51,67,57,48,100,80,60,29.84,29.70,29.56,10,9,1,15,6,17,0.32,5,Rain,244
2012-9-10,67,56,44,50,47,43,96,74,52,29.90,29.84,29.81,10,10,10,20,7,26,0.00,4,,347
2012-9-11,68,54,40,46,42,39,96,66,35,30.20,30.06,29.91,10,10,10,15,5,21,0.00,0,,323
2012-9-12,75,58,40,56,48,38,100,75,49,30.29,30.25,30.21,10,10,10,14,5,17,0.00,0,,204
2012-9-13,79,66,53,58,54,48,84,65,45,30.29,30.23,30.19,10,10,10,13,7,18,0.00,0,,203
2012-9-14,77,67,56,62,58,55,100,80,60,30.22,30.16,30.05,10,7,0,10,6,17,0.00,4,Fog,187
2012-9-15,69,57,44,61,54,38,93,75,57,30.04,29.92,29.82,10,8,2,18,6,26,0.08,5,Rain-Thunderstorm,216
2012-9-16,62,51,39,39,37,34,82,59,36,29.94,29.88,29.84,10,10,10,18,7,28,0.00,0,,246
2012-9-17,69,51,33,50,42,34,92,65,37,30.04,30.00,29.96,10,10,10,14,4,17,0.00,0,,220
2012-9-18,70,59,48,58,51,46,93,74,55,30.06,29.98,29.80,10,10,9,20,9,33,0.01,3,Rain,172
2012-9-19,68,51,34,64,51,36,93,70,47,30.22,29.85,29.66,10,7,1,26,7,39,0.61,6,Rain,229
2012-9-20,61,45,29,43,36,28,100,68,35,30.32,30.25,30.19,10,10,8,10,3,15,0.00,0,,88
2012-9-21,59,48,36,52,44,34,96,79,62,30.20,30.17,30.11,10,8,0,9,3,13,T,5,Fog,118
2012-9-22,76,65,54,65,59,52,100,84,68,30.09,29.96,29.81,10,5,0,16,5,23,0.09,8,Fog-Rain,142
2012-9-23,66,51,36,61,51,34,93,69,44,30.02,29.84,29.76,10,9,2,15,5,20,0.02,5,Rain,234
2012-9-24,62,47,31,43,37,30,100,70,39,30.10,30.04,29.99,10,10,9,18,3,25,0.00,1,,215
2012-9-25,65,51,37,45,41,34,92,68,43,30.08,30.03,30.00,10,10,10,21,8,28,0.00,1,,195
2012-9-26,59,54,49,57,54,46,93,85,77,30.08,29.98,29.92,10,7,1,14,6,24,0.27,7,Rain,201
2012-9-27,59,45,31,56,44,31,100,70,40,30.25,30.04,29.91,10,9,7,15,4,22,0.01,4,Rain,323
2012-9-28,59,44,29,45,36,28,96,72,47,30.29,30.22,30.16,10,10,10,10,2,15,0.00,1,,173
2012-9-29,52,50,47,51,47,44,100,90,80,30.15,30.05,29.95,10,6,2,14,7,21,0.58,8,Rain,58
2012-9-30,65,59,52,63,57,51,100,94,87,29.96,29.77,29.53,10,4,0,18,7,28,1.96,8,Fog-Rain,40